Time;durP1;ratioP1;P1;durP2;ratioP2;P2;SDS_P1;SDS_P2;PMS_P1;PMS_P2;Temp;Humidity;BMP_temperature;BMP_pressure;BME280_temperature;BME280_humidity;BME280_pressure;Samples;Min_cycle;Max_cycle;Signal;HPM_P1;HPM_P2
2022/05/30 00:01:39;;;;;;;1.58;1.33;;;12.60;99.90;;;;;;6189568;23;20599;-86
2022/05/30 00:04:04;;;;;;;1.30;1.20;;;12.50;99.90;;;;;;6163705;23;20226;-86
2022/05/30 00:06:30;;;;;;;1.40;1.10;;;12.50;99.90;;;;;;6188968;23;20164;-87
2022/05/30 00:08:56;;;;;;;1.40;1.30;;;12.50;99.90;;;;;;6188811;23;20210;-86
2022/05/30 00:11:23;;;;;;;1.20;1.10;;;12.50;99.90;;;;;;6164409;23;20163;-85
2022/05/30 00:13:49;;;;;;;1.20;1.13;;;12.50;99.90;;;;;;6164940;23;20167;-86
2022/05/30 00:16:18;;;;;;;1.88;1.20;;;12.40;99.90;;;;;;6216596;23;20183;-85
2022/05/30 00:18:44;;;;;;;3.00;1.20;;;12.40;99.90;;;;;;6189485;23;20243;-86
2022/05/30 00:21:11;;;;;;;1.45;1.30;;;12.40;99.90;;;;;;6215147;23;20206;-86
2022/05/30 00:23:40;;;;;;;1.30;1.10;;;12.40;99.90;;;;;;6215243;23;20159;-86
2022/05/30 00:26:07;;;;;;;2.03;1.50;;;12.40;99.90;;;;;;6189187;23;20447;-86
2022/05/30 00:28:34;;;;;;;1.48;1.38;;;12.40;99.90;;;;;;6215952;23;20152;-86
2022/05/30 00:30:59;;;;;;;2.58;1.48;;;12.40;99.90;;;;;;6164700;23;20218;-86
2022/05/30 00:33:25;;;;;;;1.70;1.60;;;12.40;99.90;;;;;;6165137;23;20164;-85
2022/05/30 00:35:51;;;;;;;1.98;1.58;;;12.40;99.90;;;;;;6165305;23;20191;-86
2022/05/30 00:38:16;;;;;;;1.55;1.25;;;12.40;99.90;;;;;;6165384;23;20194;-85
2022/05/30 00:40:43;;;;;;;1.08;1.08;;;12.30;99.90;;;;;;6141830;23;20156;-85
2022/05/30 00:43:20;;;;;;;1.77;1.38;;;12.30;99.90;;;;;;6223823;23;20455;-85
2022/05/30 00:45:47;;;;;;;2.28;1.55;;;11.70;99.90;;;;;;6193182;23;20518;-85
2022/05/30 00:48:13;;;;;;;1.30;1.20;;;12.20;99.90;;;;;;6190106;23;20164;-85
2022/05/30 00:50:40;;;;;;;1.58;1.48;;;12.20;99.90;;;;;;6164798;23;20160;-85
2022/05/30 00:53:07;;;;;;;1.30;1.30;;;12.20;99.90;;;;;;6140781;23;20156;-86
2022/05/30 00:55:35;;;;;;;2.55;1.65;;;12.20;99.90;;;;;;6165565;23;20196;-85
2022/05/30 00:58:02;;;;;;;4.13;1.70;;;12.20;99.90;;;;;;6215720;23;20152;-85
2022/05/30 01:00:28;;;;;;;2.38;1.67;;;12.20;99.90;;;;;;6164478;23;20163;-86
2022/05/30 01:08:27;;;;;;;1.45;1.35;;;12.20;99.90;;;;;;6193823;23;20475;-85
2022/05/30 01:10:53;;;;;;;2.53;1.40;;;12.10;99.90;;;;;;6190378;23;20317;-85
2022/05/30 01:13:19;;;;;;;2.47;1.38;;;12.10;99.90;;;;;;6189800;23;20194;-85
2022/05/30 01:15:45;;;;;;;1.40;1.30;;;12.20;99.90;;;;;;6142781;23;20196;-85
2022/05/30 01:18:23;;;;;;;1.08;1.08;;;11.90;99.90;;;;;;6193427;23;20645;-87
2022/05/30 01:21:34;;;;;;;1.15;1.08;;;12.00;99.90;;;;;;6193552;23;20160;-85
2022/05/30 01:24:02;;;;;;;1.55;1.02;;;12.00;99.90;;;;;;6192413;23;20164;-85
2022/05/30 01:26:48;;;;;;;1.85;1.50;;;11.40;99.90;;;;;;6198103;23;20164;-85
2022/05/30 01:29:22;;;;;;;1.25;1.20;;;11.90;99.90;;;;;;6193245;23;20154;-85
2022/05/30 01:31:48;;;;;;;1.40;1.30;;;11.90;99.90;;;;;;6191704;23;20148;-84
2022/05/30 01:34:14;;;;;;;1.60;1.13;;;11.80;99.90;;;;;;6192483;23;20451;-85
2022/05/30 01:36:40;;;;;;;1.95;1.10;;;11.80;99.90;;;;;;6166917;23;20207;-85
2022/05/30 01:39:05;;;;;;;0.85;0.85;;;11.80;99.90;;;;;;6141888;23;20218;-84
2022/05/30 01:41:31;;;;;;;1.20;1.10;;;11.70;99.90;;;;;;6166138;23;20160;-85
2022/05/30 01:43:57;;;;;;;1.40;1.30;;;11.70;99.90;;;;;;6191517;23;20167;-85
2022/05/30 01:46:24;;;;;;;1.27;1.17;;;11.70;99.90;;;;;;6166436;23;20167;-84
2022/05/30 01:48:51;;;;;;;1.02;1.02;;;11.70;99.90;;;;;;6167182;23;20210;-84
2022/05/30 01:51:19;;;;;;;1.00;1.00;;;11.80;99.90;;;;;;6218262;23;20179;-84
2022/05/30 01:53:46;;;;;;;3.70;1.52;;;11.60;99.90;;;;;;6227565;23;20148;-85
2022/05/30 01:56:12;;;;;;;1.45;1.35;;;11.60;99.90;;;;;;6193900;23;20262;-86
2022/05/30 01:58:38;;;;;;;3.20;1.55;;;11.60;99.90;;;;;;6168011;23;20144;-85
2022/05/30 02:01:18;;;;;;;1.17;1.15;;;11.60;99.90;;;;;;6218307;23;20176;-93
2022/05/30 02:03:48;;;;;;;1.58;1.25;;;11.50;99.90;;;;;;6218251;23;20177;-86
2022/05/30 02:06:14;;;;;;;1.67;1.45;;;11.50;99.90;;;;;;6219279;23;20156;-90
2022/05/30 02:08:40;;;;;;;1.33;1.02;;;11.40;99.90;;;;;;6193830;23;20136;-86
2022/05/30 02:11:10;;;;;;;0.90;0.90;;;11.40;99.90;;;;;;6244598;23;20188;-86
2022/05/30 02:13:37;;;;;;;1.00;1.00;;;11.40;99.90;;;;;;6218872;23;20166;-87
2022/05/30 02:18:52;;;;;;;1.85;1.08;;;11.30;99.90;;;;;;6244778;23;20152;-85
2022/05/30 02:21:17;;;;;;;1.38;1.15;;;11.30;99.90;;;;;;6194411;23;20155;-86
2022/05/30 02:23:46;;;;;;;1.20;1.10;;;11.30;99.90;;;;;;6193525;23;20151;-86
2022/05/30 02:26:12;;;;;;;1.10;1.10;;;11.20;99.90;;;;;;6193251;23;20136;-88
2022/05/30 02:28:38;;;;;;;1.30;1.20;;;;;;;;;;6218947;23;20414;-87
2022/05/30 02:31:04;;;;;;;1.20;1.10;;;11.20;99.90;;;;;;6204517;23;20160;-86
2022/05/30 02:38:59;;;;;;;1.50;1.40;;;11.70;99.90;;;;;;6202185;23;20255;-86
2022/05/30 02:41:25;;;;;;;1.50;1.40;;;;;;;;;;6170940;23;20160;-86
2022/05/30 02:43:50;;;;;;;1.92;1.65;;;11.10;99.90;;;;;;6190266;23;20484;-85
2022/05/30 02:46:17;;;;;;;1.88;1.67;;;11.20;99.90;;;;;;6165001;23;20163;-85
2022/05/30 02:48:43;;;;;;;2.28;2.05;;;11.20;99.90;;;;;;6189938;23;20218;-85
2022/05/30 02:51:08;;;;;;;3.45;1.85;;;11.10;99.90;;;;;;6216205;23;20563;-85
2022/05/30 02:53:34;;;;;;;2.67;2.47;;;11.10;99.90;;;;;;6190131;23;20156;-85
2022/05/30 02:56:01;;;;;;;2.20;1.98;;;11.20;99.90;;;;;;6165207;23;20184;-85
2022/05/30 02:58:26;;;;;;;2.70;2.15;;;11.10;99.90;;;;;;6189824;23;20151;-85
2022/05/30 03:00:52;;;;;;;2.65;2.28;;;11.10;99.90;;;;;;6164859;23;20170;-84
2022/05/30 03:03:18;;;;;;;2.13;1.90;;;11.10;99.90;;;;;;6164098;23;20160;-85
2022/05/30 03:05:44;;;;;;;2.33;1.52;;;11.00;99.90;;;;;;6165212;23;20160;-86
2022/05/30 03:08:10;;;;;;;1.83;1.60;;;11.00;99.90;;;;;;6165095;23;20587;-86
2022/05/30 03:10:37;;;;;;;1.80;1.70;;;11.00;99.90;;;;;;6189374;23;20196;-85
2022/05/30 03:13:04;;;;;;;1.80;1.70;;;11.00;99.90;;;;;;6216553;23;20225;-85
2022/05/30 03:15:29;;;;;;;2.13;1.90;;;11.00;99.90;;;;;;6165068;23;20223;-86
2022/05/30 03:17:55;;;;;;;2.30;1.98;;;10.90;99.90;;;;;;6164814;23;20160;-84
2022/05/30 03:20:21;;;;;;;2.20;2.00;;;11.00;99.90;;;;;;6215456;23;20159;-85
2022/05/30 03:22:48;;;;;;;2.28;2.00;;;11.00;99.90;;;;;;6189298;23;20584;-86
2022/05/30 03:25:15;;;;;;;3.15;2.45;;;11.00;99.90;;;;;;6189385;23;20182;-85
2022/05/30 03:27:41;;;;;;;1.63;1.52;;;10.90;99.90;;;;;;6189575;23;20158;-85
2022/05/30 03:30:08;;;;;;;2.40;2.20;;;10.90;99.90;;;;;;6215667;23;20175;-85
2022/05/30 03:32:34;;;;;;;2.25;2.05;;;11.00;99.90;;;;;;6215982;23;20162;-85
2022/05/30 03:34:59;;;;;;;2.30;1.95;;;11.00;99.90;;;;;;6188969;23;20561;-85
2022/05/30 03:37:28;;;;;;;1.98;1.83;;;11.00;99.90;;;;;;6139608;23;20605;-86
2022/05/30 03:39:54;;;;;;;2.95;2.08;;;10.90;99.90;;;;;;6189370;23;20163;-84
2022/05/30 03:42:19;;;;;;;2.17;1.83;;;11.00;99.90;;;;;;6139579;23;20488;-84
2022/05/30 03:44:45;;;;;;;2.22;2.03;;;10.90;99.90;;;;;;6139725;23;20166;-84
2022/05/30 03:47:11;;;;;;;2.40;2.20;;;11.00;99.90;;;;;;6189306;23;20160;-88
2022/05/30 03:49:37;;;;;;;1.70;1.60;;;11.00;99.90;;;;;;6189520;23;20202;-84
2022/05/30 03:52:04;;;;;;;1.95;1.85;;;11.00;99.90;;;;;;6189141;23;20160;-85
2022/05/30 03:54:30;;;;;;;2.00;1.83;;;11.00;99.90;;;;;;6188782;23;20706;-84
2022/05/30 03:56:56;;;;;;;2.70;1.92;;;11.00;99.90;;;;;;6189154;23;20152;-84
2022/05/30 03:59:22;;;;;;;2.20;2.00;;;10.90;99.90;;;;;;6164180;23;20167;-84
2022/05/30 04:01:48;;;;;;;4.88;2.00;;;10.90;99.90;;;;;;6189132;23;20247;-84
2022/05/30 04:04:13;;;;;;;2.45;2.05;;;11.00;99.90;;;;;;6215379;23;20175;-85
2022/05/30 04:06:40;;;;;;;3.60;2.08;;;10.90;99.90;;;;;;6215907;23;20183;-84
2022/05/30 04:09:06;;;;;;;2.97;2.38;;;10.90;99.90;;;;;;6164409;23;20204;-85
2022/05/30 04:11:32;;;;;;;3.85;2.17;;;10.90;99.90;;;;;;6188863;23;20182;-85
2022/05/30 04:13:58;;;;;;;2.30;2.03;;;10.90;99.90;;;;;;6215737;23;20203;-84
2022/05/30 04:16:24;;;;;;;3.65;2.00;;;10.90;99.90;;;;;;6188597;23;20650;-85
2022/05/30 04:18:49;;;;;;;3.53;2.40;;;10.90;99.90;;;;;;6189404;23;20579;-85
2022/05/30 04:21:15;;;;;;;2.25;2.03;;;10.90;99.90;;;;;;6189518;23;20569;-87
2022/05/30 04:23:42;;;;;;;2.25;2.05;;;10.90;99.90;;;;;;6188747;23;20162;-84
2022/05/30 04:26:09;;;;;;;2.40;2.10;;;10.90;99.90;;;;;;6214345;23;20218;-86
2022/05/30 04:28:35;;;;;;;2.58;2.20;;;10.90;99.90;;;;;;6214743;23;20148;-86
2022/05/30 04:31:10;;;;;;;2.45;2.10;;;10.90;99.90;;;;;;6188751;23;20183;-85
2022/05/30 04:33:37;;;;;;;3.15;2.22;;;10.90;99.90;;;;;;6189422;23;20676;-85
2022/05/30 04:36:06;;;;;;;2.65;2.42;;;10.90;99.90;;;;;;6196351;23;20206;-83
2022/05/30 04:38:32;;;;;;;2.28;2.08;;;10.90;99.90;;;;;;6196264;23;20214;-85
2022/05/30 04:40:58;;;;;;;2.28;1.98;;;10.90;99.90;;;;;;6188113;23;20187;-84
2022/05/30 04:43:23;;;;;;;1.73;1.63;;;10.90;99.90;;;;;;6214967;23;20580;-84
2022/05/30 04:46:16;;;;;;;2.53;2.15;;;10.90;99.90;;;;;;6188889;23;20160;-84
2022/05/30 04:48:43;;;;;;;2.85;2.65;;;10.90;99.90;;;;;;6215246;23;20145;-84
2022/05/30 04:51:10;;;;;;;6.20;2.67;;;10.90;99.90;;;;;;6191212;23;20210;-84
2022/05/30 04:53:36;;;;;;;5.57;2.08;;;10.90;99.90;;;;;;6216560;23;20152;-85
2022/05/30 04:56:02;;;;;;;2.40;2.03;;;10.90;99.90;;;;;;6189579;23;20621;-85
2022/05/30 04:58:32;;;;;;;2.72;2.30;;;11.00;99.90;;;;;;6163608;23;20163;-86
2022/05/30 05:01:01;;;;;;;3.08;2.78;;;10.90;99.90;;;;;;6191408;23;20144;-85
2022/05/30 05:03:32;;;;;;;5.97;2.50;;;11.00;99.90;;;;;;6190283;23;20187;-85
2022/05/30 05:06:10;;;;;;;2.85;2.20;;;10.90;99.90;;;;;;6217285;23;20159;-88
2022/05/30 05:08:44;;;;;;;4.50;2.67;;;10.90;99.90;;;;;;6227476;23;20144;-86
2022/05/30 05:11:19;;;;;;;2.63;2.13;;;10.90;99.90;;;;;;6197334;23;20216;-86
2022/05/30 05:13:45;;;;;;;2.25;2.05;;;10.90;99.90;;;;;;6189604;23;20937;-87
2022/05/30 05:16:11;;;;;;;2.83;2.30;;;10.80;99.90;;;;;;6189462;23;20519;-85
2022/05/30 05:18:37;;;;;;;3.30;2.28;;;10.80;99.90;;;;;;6189512;23;20152;-87
2022/05/30 05:21:13;;;;;;;2.15;1.95;;;10.80;99.90;;;;;;6169265;23;20170;-89
2022/05/30 05:23:41;;;;;;;1.63;1.52;;;10.80;99.90;;;;;;6191133;23;20143;-88
2022/05/30 05:26:25;;;;;;;;;;;;;;;;;;;;;
2022/05/30 05:28:55;;;;;;;2.58;2.33;;;10.90;99.90;;;;;;6169042;23;20215;-87
2022/05/30 05:31:46;;;;;;;2.33;1.70;;;10.90;99.90;;;;;;6189165;23;20167;-89
2022/05/30 05:34:22;;;;;;;2.15;1.92;;;10.90;99.90;;;;;;6189698;23;20155;-86
2022/05/30 05:36:51;;;;;;;2.15;1.95;;;;;;;;;;6165276;23;20278;-87
2022/05/30 05:39:18;;;;;;;2.38;1.85;;;10.90;99.90;;;;;;6189129;23;20639;-89
2022/05/30 05:41:45;;;;;;;4.35;2.15;;;10.90;99.90;;;;;;6190151;23;20166;-88
2022/05/30 05:44:11;;;;;;;1.70;1.60;;;;;;;;;;6224749;23;20594;-87
2022/05/30 05:46:37;;;;;;;2.28;1.70;;;;;;;;;;6191659;23;20606;-87
2022/05/30 05:49:08;;;;;;;1.85;1.60;;;10.80;99.90;;;;;;6216289;23;20155;-85
2022/05/30 05:51:47;;;;;;;1.80;1.70;;;10.80;99.90;;;;;;6217082;23;20132;-89
2022/05/30 05:54:15;;;;;;;1.70;1.60;;;11.00;99.90;;;;;;6193024;23;20155;-88
2022/05/30 05:56:46;;;;;;;1.60;1.45;;;10.80;99.90;;;;;;6191468;23;20733;-87
2022/05/30 05:59:18;;;;;;;2.20;1.48;;;10.80;99.90;;;;;;6166408;23;20160;-86
2022/05/30 06:01:48;;;;;;;2.78;1.75;;;;;;;;;;6192703;23;20547;-86
2022/05/30 06:04:14;;;;;;;1.83;1.63;;;;;;;;;;6172071;23;20168;-88
2022/05/30 06:06:43;;;;;;;1.30;1.25;;;;;;;;;;6190924;23;20599;-86
2022/05/30 06:09:11;;;;;;;1.55;1.45;;;;;;;;;;6191011;23;20259;-87
2022/05/30 06:11:41;;;;;;;1.52;1.40;;;11.00;99.90;;;;;;6191916;23;20178;-87
2022/05/30 06:14:30;;;;;;;1.48;1.38;;;10.90;99.90;;;;;;6191418;23;20163;-87
2022/05/30 06:17:11;;;;;;;1.40;1.30;;;11.00;99.90;;;;;;6216397;23;20222;-87
2022/05/30 06:19:44;;;;;;;1.55;1.45;;;;;;;;;;6191890;23;20163;-87
2022/05/30 06:22:17;;;;;;;1.67;1.50;;;11.10;99.90;;;;;;6191041;23;20171;-88
2022/05/30 06:24:43;;;;;;;1.17;1.08;;;;;;;;;;6190437;23;20175;-87
2022/05/30 06:27:17;;;;;;;1.23;1.13;;;11.10;99.90;;;;;;6218669;23;20176;-88
2022/05/30 06:29:46;;;;;;;1.30;1.20;;;8.00;99.90;;;;;;6218594;23;20140;-86
2022/05/30 06:32:14;;;;;;;1.33;1.23;;;;;;;;;;6191623;23;20156;-87
2022/05/30 06:34:40;;;;;;;1.83;1.50;;;;;;;;;;6235816;23;20140;-86
2022/05/30 06:37:15;;;;;;;1.27;1.15;;;11.10;99.90;;;;;;6196428;23;20152;-86
2022/05/30 06:39:44;;;;;;;1.25;1.15;;;;;;;;;;6167467;23;20164;-87
2022/05/30 06:42:12;;;;;;;1.02;1.00;;;11.10;99.90;;;;;;6191577;23;20170;-87
2022/05/30 06:44:46;;;;;;;1.25;1.15;;;11.10;99.90;;;;;;6190592;23;20156;-87
2022/05/30 06:47:12;;;;;;;1.08;0.90;;;;;;;;;;6190630;23;20210;-87
2022/05/30 06:49:40;;;;;;;1.20;1.20;;;;;;;;;;6216292;23;20556;-86
2022/05/30 06:52:11;;;;;;;1.05;0.80;;;11.10;99.90;;;;;;6216450;23;20152;-86
2022/05/30 06:54:40;;;;;;;1.30;1.20;;;;;;;;;;6189004;23;20160;-86
2022/05/30 06:59:52;;;;;;;0.93;0.93;;;10.50;99.90;;;;;;6217017;23;20151;-87
2022/05/30 07:02:18;;;;;;;1.38;1.27;;;11.10;99.90;;;;;;6165238;23;20289;-86
2022/05/30 07:04:43;;;;;;;1.00;1.00;;;11.10;99.90;;;;;;6190150;23;20187;-86
2022/05/30 07:07:09;;;;;;;1.10;1.00;;;11.10;99.90;;;;;;6165493;23;20160;-88
2022/05/30 07:09:35;;;;;;;0.90;0.90;;;;;;;;;;6164584;23;20230;-87
2022/05/30 07:12:01;;;;;;;1.35;1.00;;;11.10;99.90;;;;;;6190337;23;20649;-87
2022/05/30 07:14:27;;;;;;;1.48;0.90;;;11.20;99.90;;;;;;6189508;23;20219;-86
2022/05/30 07:16:53;;;;;;;0.80;0.80;;;11.10;99.90;;;;;;6164721;23;20316;-87
2022/05/30 07:19:19;;;;;;;1.10;1.10;;;11.10;99.90;;;;;;6216531;23;20580;-88
2022/05/30 07:21:45;;;;;;;1.00;0.73;;;;;;;;;;6142109;23;20156;-88
2022/05/30 07:24:11;;;;;;;0.93;0.90;;;11.30;99.90;;;;;;6166127;23;20160;-88
2022/05/30 07:26:37;;;;;;;0.80;0.80;;;11.20;99.90;;;;;;6190904;23;20250;-88
2022/05/30 07:29:04;;;;;;;0.80;0.80;;;11.20;99.90;;;;;;6190356;23;20584;-87
2022/05/30 07:31:29;;;;;;;1.35;1.00;;;11.20;99.90;;;;;;6216805;23;20155;-88
2022/05/30 07:33:57;;;;;;;0.70;0.70;;;;;;;;;;6165038;23;20549;-90
2022/05/30 07:36:25;;;;;;;0.60;0.60;;;11.30;99.90;;;;;;6166298;23;20195;-88
2022/05/30 07:38:51;;;;;;;0.82;0.82;;;11.30;99.90;;;;;;6191149;23;20151;-87
2022/05/30 07:41:18;;;;;;;0.90;0.90;;;11.30;99.90;;;;;;6191306;23;20160;-89
2022/05/30 07:43:45;;;;;;;0.60;0.60;;;11.40;99.90;;;;;;6190983;23;20156;-88
2022/05/30 07:46:14;;;;;;;0.88;0.85;;;11.40;99.90;;;;;;6141821;23;20167;-88
2022/05/30 07:48:41;;;;;;;0.80;0.80;;;11.40;99.90;;;;;;6228095;23;20152;-87
2022/05/30 07:51:10;;;;;;;0.77;0.77;;;11.40;99.90;;;;;;6193098;23;20152;-86
2022/05/30 07:53:38;;;;;;;0.70;0.70;;;11.50;99.90;;;;;;6190019;23;20164;-90
2022/05/30 07:56:10;;;;;;;0.80;0.80;;;11.70;99.90;;;;;;6190269;23;20230;-86
2022/05/30 07:58:39;;;;;;;0.80;0.80;;;11.90;99.90;;;;;;6189607;23;20168;-86
2022/05/30 08:01:06;;;;;;;1.20;1.00;;;12.00;99.90;;;;;;6165869;23;20571;-88
2022/05/30 08:03:34;;;;;;;0.60;0.60;;;12.00;99.90;;;;;;6165752;23;20308;-87
2022/05/30 08:06:09;;;;;;;0.70;0.70;;;11.90;99.90;;;;;;6165104;23;20164;-87
2022/05/30 08:08:35;;;;;;;1.10;0.98;;;11.80;99.90;;;;;;6189174;23;20159;-87
2022/05/30 08:11:00;;;;;;;0.63;0.60;;;11.80;99.90;;;;;;6177379;23;20160;-86
2022/05/30 08:13:27;;;;;;;0.98;0.73;;;;;;;;;;6193375;23;20162;-87
2022/05/30 08:15:52;;;;;;;0.73;0.73;;;11.80;99.90;;;;;;6218039;23;20255;-87
2022/05/30 08:18:18;;;;;;;0.70;0.70;;;11.80;99.90;;;;;;6192096;23;20170;-87
2022/05/30 08:20:45;;;;;;;0.60;0.60;;;11.80;99.90;;;;;;6217899;23;20152;-86
2022/05/30 08:23:11;;;;;;;0.60;0.60;;;11.80;99.90;;;;;;6217969;23;20976;-88
2022/05/30 08:25:38;;;;;;;0.65;0.65;;;11.80;99.90;;;;;;6219440;23;20140;-86
2022/05/30 08:28:04;;;;;;;0.80;0.80;;;11.80;99.90;;;;;;6219771;23;20146;-87
2022/05/30 08:30:30;;;;;;;0.60;0.60;;;11.70;99.90;;;;;;6216587;23;20212;-86
2022/05/30 08:32:56;;;;;;;0.75;0.60;;;11.70;99.90;;;;;;6219109;23;20143;-93
2022/05/30 08:35:22;;;;;;;0.65;0.65;;;11.90;99.90;;;;;;6217988;23;20206;-90
2022/05/30 08:37:48;;;;;;;1.00;0.88;;;11.70;99.90;;;;;;6219136;23;20155;-94
2022/05/30 08:43:19;;;;;;;0.80;0.80;;;11.80;99.90;;;;;;6240081;23;20248;-87
2022/05/30 08:45:46;;;;;;;1.10;1.02;;;11.80;99.90;;;;;;6226039;23;20154;-88
2022/05/30 08:48:33;;;;;;;0.80;0.80;;;11.90;99.90;;;;;;6172853;23;20159;-87
2022/05/30 08:51:35;;;;;;;0.90;0.90;;;11.80;99.90;;;;;;6192662;23;20618;-86
2022/05/30 08:54:13;;;;;;;0.85;0.85;;;11.80;99.90;;;;;;6191841;23;20613;-87
2022/05/30 08:56:41;;;;;;;1.00;1.00;;;11.90;99.90;;;;;;6192458;23;20188;-87
2022/05/30 08:59:53;;;;;;;3.55;1.67;;;11.90;99.90;;;;;;6192826;23;20163;-86
2022/05/30 09:02:39;;;;;;;1.42;1.13;;;12.50;99.90;;;;;;6193459;23;20160;-89
2022/05/30 09:05:27;;;;;;;1.17;1.10;;;12.20;99.90;;;;;;6219003;23;20202;-85
2022/05/30 09:07:57;;;;;;;1.40;1.30;;;12.20;99.90;;;;;;6192201;23;20160;-86
2022/05/30 09:10:33;;;;;;;1.48;1.38;;;12.20;99.90;;;;;;6186256;23;20613;-85
2022/05/30 09:13:07;;;;;;;1.73;1.63;;;12.20;99.90;;;;;;6185932;23;20477;-86
2022/05/30 09:15:43;;;;;;;1.35;1.20;;;12.30;99.90;;;;;;6186688;23;20191;-85
2022/05/30 09:18:45;;;;;;;1.90;1.42;;;12.40;99.90;;;;;;6186168;23;20239;-85
2022/05/30 09:21:11;;;;;;;1.92;1.38;;;12.50;99.90;;;;;;6138665;23;20669;-86
2022/05/30 09:23:39;;;;;;;1.45;1.33;;;12.30;99.90;;;;;;6160689;23;20188;-88
2022/05/30 09:26:08;;;;;;;2.08;1.75;;;12.30;99.90;;;;;;6159212;23;20185;-88
2022/05/30 09:28:56;;;;;;;2.97;1.83;;;12.20;99.90;;;;;;6185915;23;20157;-86
2022/05/30 09:31:22;;;;;;;2.90;2.33;;;;;;;;;;6185215;23;20587;-88
2022/05/30 09:34:03;;;;;;;4.38;3.40;;;12.20;99.90;;;;;;6184591;23;20161;-89
2022/05/30 09:36:46;;;;;;;6.15;4.53;;;12.20;99.90;;;;;;6186423;23;20633;-88
2022/05/30 09:39:17;;;;;;;4.45;3.83;;;12.40;99.90;;;;;;6185694;23;20160;-87
2022/05/30 09:41:43;;;;;;;8.80;6.18;;;;;;;;;;6185069;23;20152;-89
2022/05/30 09:44:18;;;;;;;7.68;5.40;;;12.40;99.90;;;;;;6185312;23;20160;-88
2022/05/30 09:46:54;;;;;;;4.55;4.15;;;10.30;99.90;;;;;;6189549;23;20602;-88
2022/05/30 09:49:23;;;;;;;5.80;4.85;;;12.40;99.90;;;;;;6200825;23;20164;-87
2022/05/30 09:51:52;;;;;;;2.28;1.95;;;12.40;99.90;;;;;;6202797;23;20192;-87
2022/05/30 09:54:24;;;;;;;4.35;3.53;;;12.70;99.90;;;;;;6184930;23;20490;-87
2022/05/30 09:57:16;;;;;;;3.13;2.80;;;12.20;99.90;;;;;;6185223;23;20230;-88
2022/05/30 09:59:50;;;;;;;21.35;14.98;;;12.20;99.90;;;;;;6185172;23;20161;-88
2022/05/30 10:02:32;;;;;;;19.77;14.02;;;12.30;99.90;;;;;;6185466;23;20149;-88
2022/05/30 10:08:30;;;;;;;15.43;10.63;;;12.50;99.90;;;;;;6188077;23;20164;-87
2022/05/30 10:10:57;;;;;;;16.80;12.07;;;;;;;;;;6161613;23;20223;-87
2022/05/30 10:13:35;;;;;;;16.23;12.55;;;12.60;99.90;;;;;;6192459;23;20157;-86
2022/05/30 10:16:08;;;;;;;5.22;4.15;;;12.60;99.90;;;;;;6187317;23;20215;-88
2022/05/30 10:18:59;;;;;;;11.43;7.85;;;12.50;99.90;;;;;;6184642;23;20187;-87
2022/05/30 10:21:34;;;;;;;11.93;7.80;;;12.40;99.90;;;;;;6184340;23;20164;-86
2022/05/30 10:30:19;;;;;;;2.00;1.77;;;12.00;99.90;;;;;;6203397;23;20136;-87
2022/05/30 10:33:05;;;;;;;1.67;1.50;;;11.80;99.90;;;;;;6195417;23;20243;-89
2022/05/30 10:35:32;;;;;;;2.70;2.50;;;;;;;;;;6197456;23;20238;-88
2022/05/30 10:38:06;;;;;;;4.68;3.72;;;11.90;99.90;;;;;;6190169;23;20156;-89
2022/05/30 10:41:31;;;;;;;5.07;3.90;;;11.90;99.90;;;;;;6189735;23;20143;-89
2022/05/30 10:44:15;;;;;;;2.53;2.17;;;11.90;99.90;;;;;;6192385;23;20160;-88
2022/05/30 10:47:02;;;;;;;3.60;2.97;;;11.90;99.90;;;;;;6208089;23;20171;-87
2022/05/30 10:49:38;;;;;;;7.53;6.13;;;11.90;99.90;;;;;;6209688;23;20166;-89
2022/05/30 10:52:37;;;;;;;3.53;3.08;;;12.00;99.90;;;;;;6209380;23;20160;-88
2022/05/30 10:55:14;;;;;;;7.63;5.20;;;12.00;99.90;;;;;;6210030;23;20187;-88
2022/05/30 10:58:34;;;;;;;8.93;6.78;;;12.00;99.90;;;;;;6209857;23;20203;-90
2022/05/30 11:01:10;;;;;;;11.27;9.65;;;12.40;99.90;;;;;;6172291;23;20161;-90
2022/05/30 11:03:50;;;;;;;11.73;8.95;;;12.70;99.90;;;;;;6187584;23;20182;-89
2022/05/30 11:06:32;;;;;;;6.78;4.72;;;13.00;99.90;;;;;;6198013;23;20145;-90
2022/05/30 11:09:12;;;;;;;17.48;12.30;;;13.30;99.90;;;;;;6207018;23;20196;-88
2022/05/30 11:11:48;;;;;;;25.45;16.92;;;13.30;99.90;;;;;;6189768;23;20595;-88
2022/05/30 11:14:36;;;;;;;26.48;17.90;;;13.30;99.90;;;;;;6188691;23;20231;-88
2022/05/30 11:17:29;;;;;;;20.85;14.77;;;13.50;99.90;;;;;;6189770;23;20183;-87
2022/05/30 11:20:22;;;;;;;31.63;20.92;;;14.10;99.90;;;;;;6188767;23;20199;-89
2022/05/30 11:22:56;;;;;;;12.98;8.57;;;14.30;99.90;;;;;;6188475;23;20668;-87
2022/05/30 11:25:51;;;;;;;3.92;2.42;;;15.40;99.90;;;;;;6188510;23;20167;-87
2022/05/30 11:28:24;;;;;;;3.22;2.65;;;13.90;99.90;;;;;;6189072;23;20156;-88
2022/05/30 11:31:24;;;;;;;;;;;;;;;;;;;;;
2022/05/30 11:34:16;;;;;;;2.75;1.88;;;14.50;99.90;;;;;;6215143;23;20215;-86
2022/05/30 11:37:15;;;;;;;2.03;1.83;;;14.50;99.90;;;;;;6157174;23;20210;-86
2022/05/30 11:40:18;;;;;;;1.77;1.58;;;14.60;99.90;;;;;;6187760;23;20595;-87
2022/05/30 11:43:18;;;;;;;2.35;1.70;;;14.10;99.90;;;;;;6188379;23;20174;-86
2022/05/30 11:45:44;;;;;;;2.70;1.77;;;;;;;;;;6190524;23;20760;-87
2022/05/30 11:48:35;;;;;;;1.67;1.30;;;14.20;99.90;;;;;;6192820;23;20160;-88
2022/05/30 11:51:25;;;;;;;1.33;1.23;;;14.30;99.90;;;;;;6200707;23;20163;-86
2022/05/30 11:54:01;;;;;;;2.58;2.17;;;14.50;99.90;;;;;;6205453;23;20239;-86
2022/05/30 11:56:34;;;;;;;2.03;1.92;;;;;;;;;;6220473;23;20290;-87
2022/05/30 11:59:02;;;;;;;1.48;1.02;;;;;;;;;;6190462;23;20606;-87
2022/05/30 12:01:30;;;;;;;1.08;0.90;;;14.50;99.90;;;;;;6215398;23;20147;-86
2022/05/30 12:04:11;;;;;;;1.75;1.65;;;14.40;99.90;;;;;;6189228;23;20163;-87
2022/05/30 12:07:18;;;;;;;1.40;1.08;;;14.50;99.90;;;;;;6190345;23;20250;-87
2022/05/30 12:09:45;;;;;;;1.00;0.90;;;;;;;;;;6115556;23;20205;-86
2022/05/30 12:12:29;;;;;;;0.88;0.88;;;14.70;99.90;;;;;;6192700;23;20168;-88
2022/05/30 12:15:23;;;;;;;1.02;1.00;;;14.90;99.90;;;;;;6162654;23;20207;-88
2022/05/30 12:24:21;;;;;;;1.27;0.90;;;15.10;99.90;;;;;;6191849;23;20147;-86
2022/05/30 12:26:54;;;;;;;1.50;1.40;;;;;;;;;;6189899;23;20184;-85
2022/05/30 12:29:38;;;;;;;1.50;1.40;;;15.20;99.90;;;;;;6172199;23;20157;-86
2022/05/30 12:32:39;;;;;;;;;;;;;;;;;;;;;
2022/05/30 12:35:27;;;;;;;1.23;0.90;;;15.30;99.90;;;;;;6193124;23;20223;-87
2022/05/30 12:38:32;;;;;;;0.90;0.90;;;15.30;99.90;;;;;;6192428;23;20137;-87
2022/05/30 12:41:20;;;;;;;1.63;1.25;;;15.60;99.90;;;;;;6168412;23;20156;-87
2022/05/30 12:43:49;;;;;;;1.20;1.10;;;15.30;99.90;;;;;;6174943;23;20156;-89
2022/05/30 12:46:21;;;;;;;0.98;0.95;;;15.30;99.90;;;;;;6139408;23;20592;-86
2022/05/30 12:49:25;;;;;;;2.38;1.20;;;15.50;99.90;;;;;;6167234;23;20220;-86
2022/05/30 12:52:14;;;;;;;1.70;1.35;;;15.60;99.90;;;;;;6201439;23;20167;-87
2022/05/30 12:54:58;;;;;;;0.98;0.98;;;15.50;99.90;;;;;;6196746;23;20200;-85
2022/05/30 12:57:44;;;;;;;1.50;1.40;;;15.40;99.90;;;;;;6171179;23;20151;-87
2022/05/30 13:00:22;;;;;;;1.30;1.20;;;15.20;99.90;;;;;;6165279;23;20160;-87
2022/05/30 13:03:25;;;;;;;1.15;1.05;;;15.20;99.90;;;;;;6167896;23;20157;-84
2022/05/30 13:06:14;;;;;;;3.63;1.50;;;15.00;99.90;;;;;;6164066;23;20487;-85
2022/05/30 13:09:09;;;;;;;1.27;1.17;;;15.00;99.90;;;;;;6195684;23;20137;-86
2022/05/30 13:11:45;;;;;;;1.50;1.40;;;15.00;99.90;;;;;;6204919;23;20155;-87
2022/05/30 13:14:13;;;;;;;2.08;1.23;;;;;;;;;;6206758;23;20218;-86
2022/05/30 13:16:42;;;;;;;2.05;1.48;;;15.00;99.90;;;;;;6205911;23;20202;-83
2022/05/30 13:19:12;;;;;;;1.23;1.15;;;15.90;99.90;;;;;;6221658;23;20160;-83
2022/05/30 13:22:00;;;;;;;1.73;1.25;;;15.30;99.90;;;;;;6226143;23;20222;-88
2022/05/30 13:24:37;;;;;;;1.52;1.30;;;15.50;99.90;;;;;;6231819;23;20484;-87
2022/05/30 13:27:04;;;;;;;1.25;1.10;;;15.50;99.90;;;;;;6199907;23;20159;-87
2022/05/30 13:29:36;;;;;;;2.70;1.20;;;15.40;99.90;;;;;;6172242;23;20160;-86
2022/05/30 13:32:07;;;;;;;0.88;0.88;;;15.10;99.90;;;;;;6198194;23;20152;-86
2022/05/30 13:34:43;;;;;;;1.23;1.13;;;14.90;99.90;;;;;;6226081;23;20258;-88
2022/05/30 13:37:35;;;;;;;1.30;1.20;;;14.80;99.90;;;;;;6175817;23;20203;-89
2022/05/30 13:40:06;;;;;;;1.30;1.17;;;14.80;99.90;;;;;;6196626;23;20160;-85
2022/05/30 13:42:47;;;;;;;1.73;1.48;;;14.80;99.90;;;;;;6200418;23;20155;-86
2022/05/30 13:45:23;;;;;;;1.77;1.35;;;14.80;99.90;;;;;;6169636;23;20184;-84
2022/05/30 13:48:12;;;;;;;1.60;1.50;;;15.00;99.90;;;;;;6174700;23;20263;-88
2022/05/30 13:50:47;;;;;;;2.05;1.30;;;15.10;99.90;;;;;;6174506;23;20181;-91
2022/05/30 13:53:18;;;;;;;2.10;1.20;;;15.10;99.90;;;;;;6205516;23;20155;-86
2022/05/30 13:56:13;;;;;;;1.40;1.30;;;15.10;99.90;;;;;;6233574;23;20608;-87
2022/05/30 13:59:08;;;;;;;2.35;1.30;;;15.00;99.90;;;;;;6206086;23;20186;-88
2022/05/30 14:01:40;;;;;;;3.63;1.55;;;15.20;99.90;;;;;;6202067;23;20282;-86
2022/05/30 14:04:45;;;;;;;1.70;1.60;;;15.40;99.90;;;;;;6226961;23;20151;-88
2022/05/30 14:07:46;;;;;;;1.10;1.00;;;15.40;99.90;;;;;;6207722;23;20191;-87